Terminal Aerodrome Forecast
Issued by NWS Wilmington, NC

Home | Current Version | Previous Version | Text Only | Print | Product List | Glossary On
Versions: 1 2 3 4 5 6 7 8 9 10 11 12 13 14 15 16
000
FTUS42 KILM 221700
TAFFLO
TAF
KFLO 221727Z 2218/2318 04007KT 6SM -RA BR OVC005
      TEMPO 2219/2223 3SM -RA BR OVC006
     FM230700 VRB03KT 3SM BR OVC004=

USA.gov is the U.S. government's official web portal to all federal, state and local government web resources and services.